Terminal Aerodrome Forecast
Issued by NWS Charleston, WV

Current Version | Previous Version | Text Only | Print | Product List | Glossary Off
Versions: 1 2 3 4 5 6 7 8 9 10 11 12 13 14 15 16 17 18 19 20 21 22 23 24

000
FTUS41 KRLX 301700
TAFEKN
TAF
KEKN 301723Z 3018/0118 VRB04KT P6SM BKN090
     FM302200 01004KT 4SM -SHRA BR OVC035
     FM010100 00000KT 4SM SHRA BR OVC025
     FM010800 VRB03KT 3SM BR OVC010
     FM011300 VRB03KT 5SM BR OVC012
     FM011500 00000KT P6SM BKN025=

USA.gov is the U.S. government's official web portal to all federal, state and local government web resources and services.